.
WxDataArchive / Data Records for 2015-04-09
2015-04-08 April 2015 2015-04-10

Data Records for Thursday, 09 April 2015

Time	Temp	Chill	HIndex	Humid	Dewpt	 Wind 	HiWind	WindDir	Rain 	Barom
-----	----	-----	------	-----	-----	------	------	-------	-----	-----
00:00	47.7	46.2	47.7	91	45.2	4	7	90	0.00	29.989 
00:05	47.6	47.6	47.6	91	45.1	3	6	90	0.00	29.989 
00:10	47.6	47.6	47.6	91	45.1	3	7	90	0.00	29.989 
00:15	47.4	47.4	47.4	91	44.9	2	6	90	0.00	29.991 
00:20	47.4	47.4	47.4	91	44.9	3	7	90	0.00	29.991 
00:25	47.3	47.3	47.3	91	44.8	3	7	90	0.00	29.991 
00:30	47.1	44.8	47.1	90	44.3	5	11	90	0.00	29.986 
00:35	47.0	45.4	47.0	90	44.2	4	11	90	0.00	29.986 
00:40	47.0	47.0	47.0	91	44.5	3	9	90	0.00	29.986 
00:45	46.8	45.2	46.8	91	44.3	4	9	90	0.00	29.981 
00:50	46.8	45.2	46.8	91	44.3	4	7	90	0.00	29.981 
00:55	46.8	45.2	46.8	91	44.3	4	9	90	0.00	29.981 
01:00	46.8	46.8	46.8	91	44.3	3	5	112	0.00	29.974 
01:05	46.8	46.8	46.8	91	44.3	3	6	112	0.00	29.974 
01:10	46.8	46.8	46.8	91	44.3	3	7	90	0.00	29.974 
01:15	46.7	46.7	46.7	91	44.2	3	6	90	0.00	29.956 
01:20	46.7	45.1	46.7	91	44.2	4	9	90	0.00	29.956 
01:25	46.5	44.8	46.5	91	44.0	4	10	90	0.00	29.956 
01:30	46.5	44.8	46.5	91	44.0	4	7	90	0.00	29.944 
01:35	46.4	46.4	46.4	91	43.9	3	9	90	0.00	29.944 
01:40	46.4	46.4	46.4	91	43.9	3	9	90	0.00	29.944 
01:45	46.2	44.5	46.2	92	44.0	4	9	90	0.00	29.937 
01:50	46.2	46.2	46.2	92	44.0	3	6	90	0.00	29.937 
01:55	46.1	43.0	46.1	92	43.9	6	12	90	0.00	29.937 
02:00	46.1	43.6	46.1	92	43.9	5	10	90	0.00	29.932 
02:05	46.0	43.5	46.0	92	43.8	5	12	90	0.00	29.932 
02:10	45.8	43.3	45.8	92	43.6	5	11	90	0.00	29.932 
02:15	45.7	43.2	45.7	92	43.5	5	12	90	0.00	29.920 
02:20	45.5	42.9	45.5	92	43.3	5	12	90	0.00	29.920 
02:25	45.5	43.7	45.5	93	43.6	4	11	90	0.00	29.920 
02:30	45.5	42.9	45.5	93	43.6	5	11	90	0.00	29.904 
02:35	45.4	43.6	45.4	93	43.5	4	11	90	0.00	29.904 
02:40	45.4	42.8	45.4	93	43.5	5	11	90	0.00	29.904 
02:45	45.2	42.0	45.2	93	43.3	6	12	112	0.00	29.890 
02:50	45.1	45.1	45.1	94	43.5	3	9	90	0.07	29.890 
02:55	45.1	45.1	45.1	94	43.5	3	7	90	0.00	29.890 
03:00	44.9	43.0	44.9	94	43.3	4	9	90	0.00	29.894 
03:05	44.9	44.9	44.9	94	43.3	3	6	90	0.00	29.894 
03:10	44.9	44.9	44.9	94	43.3	3	9	90	0.00	29.894 
03:15	44.8	44.8	44.8	95	43.5	3	9	90	0.00	29.870 
03:20	44.8	42.9	44.8	95	43.5	4	8	112	0.00	29.870 
03:25	44.8	44.8	44.8	95	43.5	3	9	90	0.06	29.870 
03:30	44.8	44.8	44.8	95	43.5	1	4	90	0.01	29.865 
03:35	44.8	44.8	44.8	95	43.5	3	6	90	0.00	29.865 
03:40	44.8	42.9	44.8	95	43.5	4	7	90	0.00	29.865 
03:45	44.8	44.8	44.8	95	43.5	2	6	90	0.00	29.847 
03:50	44.6	44.6	44.6	95	43.3	1	5	90	0.00	29.847 
03:55	44.6	44.6	44.6	95	43.3	2	9	90	0.00	29.847 
04:00	44.6	44.6	44.6	96	43.5	2	8	90	0.00	29.858 
04:05	44.6	44.6	44.6	96	43.5	3	6	90	0.00	29.858 
04:10	44.6	44.6	44.6	96	43.5	1	5	112	0.00	29.858 
04:15	44.6	44.6	44.6	96	43.5	2	6	90	0.00	29.864 
04:20	44.6	44.6	44.6	96	43.5	2	5	68	0.00	29.864 
04:25	44.6	44.6	44.6	96	43.5	3	7	90	0.00	29.864 
04:30	44.6	44.6	44.6	96	43.5	2	7	112	0.00	29.854 
04:35	44.6	44.6	44.6	96	43.5	2	8	90	0.00	29.854 
04:40	44.6	44.6	44.6	96	43.5	2	10	90	0.00	29.854 
04:45	44.5	44.5	44.5	96	43.4	1	6	90	0.00	29.854 
04:50	44.5	44.5	44.5	96	43.4	1	4	90	0.00	29.854 
04:55	44.5	44.5	44.5	96	43.4	0	3	68	0.00	29.854 
05:00	44.5	44.5	44.5	96	43.4	1	4	22	0.00	29.854 
05:05	44.5	44.5	44.5	96	43.4	1	3	68	0.00	29.854 
05:10	44.3	44.3	44.3	96	43.2	1	3	45	0.00	29.854 
05:15	44.3	44.3	44.3	96	43.2	1	5	45	0.00	29.871 
05:20	44.2	44.2	44.2	96	43.1	0	2	112	0.00	29.871 
05:25	44.2	44.2	44.2	96	43.1	1	4	68	0.00	29.871 
05:30	44.3	44.3	44.3	96	43.2	1	7	112	0.00	29.856 
05:35	44.3	44.3	44.3	96	43.2	1	4	112	0.00	29.856 
05:40	44.5	44.5	44.5	96	43.4	1	4	112	0.00	29.856 
05:45	44.5	44.5	44.5	96	43.4	2	8	90	0.00	29.841 
05:50	44.5	44.5	44.5	96	43.4	3	9	90	0.00	29.841 
05:55	44.5	44.5	44.5	96	43.4	3	11	112	0.00	29.841 
06:00	44.5	44.5	44.5	96	43.4	3	7	112	0.00	29.857 
06:05	44.5	44.5	44.5	96	43.4	1	5	112	0.00	29.857 
06:10	44.5	44.5	44.5	96	43.4	2	6	90	0.00	29.857 
06:15	44.5	44.5	44.5	96	43.4	2	6	90	0.00	29.863 
06:20	44.5	44.5	44.5	96	43.4	1	5	90	0.00	29.863 
06:25	44.3	44.3	44.3	96	43.2	1	5	90	0.00	29.863 
06:30	44.3	44.3	44.3	96	43.2	3	9	90	0.00	29.861 
06:35	44.3	44.3	44.3	96	43.2	3	9	90	0.00	29.861 
06:40	44.2	44.2	44.2	96	43.1	3	7	90	0.00	29.861 
06:45	44.2	44.2	44.2	96	43.1	2	7	90	0.00	29.862 
06:50	44.2	44.2	44.2	96	43.1	3	7	90	0.00	29.862 
06:55	44.2	44.2	44.2	96	43.1	2	4	90	0.00	29.862 
07:00	44.2	44.2	44.2	96	43.1	2	5	90	0.00	29.871 
07:05	44.2	44.2	44.2	96	43.1	2	5	112	0.00	29.871 
07:10	44.2	44.2	44.2	96	43.1	2	5	90	0.00	29.871 
07:15	44.2	44.2	44.2	96	43.1	3	6	90	0.00	29.867 
07:20	44.2	44.2	44.2	96	43.1	3	7	90	0.00	29.867 
07:25	44.2	44.2	44.2	96	43.1	2	6	112	0.00	29.867 
07:30	44.2	44.2	44.2	97	43.4	3	6	90	0.00	29.871 
07:35	44.2	44.2	44.2	96	43.1	2	5	112	0.00	29.871 
07:40	44.2	44.2	44.2	97	43.4	3	6	90	0.00	29.871 
07:45	44.3	44.3	44.3	97	43.5	3	7	112	0.00	29.861 
07:50	44.3	44.3	44.3	97	43.5	2	5	90	0.00	29.861 
07:55	44.6	44.6	44.6	97	43.8	3	6	90	0.00	29.861 
08:00	44.6	44.6	44.6	97	43.8	3	7	90	0.00	29.863 
08:05	44.6	44.6	44.6	97	43.8	3	6	112	0.00	29.863 
08:10	44.6	44.6	44.6	97	43.8	2	5	90	0.00	29.863 
08:15	44.6	44.6	44.6	97	43.8	2	6	90	0.00	29.868 
08:20	44.6	44.6	44.6	97	43.8	2	7	90	0.00	29.868 
08:25	44.6	44.6	44.6	97	43.8	2	5	90	0.00	29.868 
08:30	44.8	44.8	44.8	97	44.0	3	7	90	0.00	29.865 
08:35	44.8	44.8	44.8	97	44.0	2	5	90	0.00	29.865 
08:40	44.8	44.8	44.8	97	44.0	2	5	90	0.00	29.865 
08:45	44.8	44.8	44.8	97	44.0	2	4	90	0.00	29.856 
08:50	44.8	44.8	44.8	97	44.0	1	4	90	0.00	29.856 
08:55	44.9	44.9	44.9	97	44.1	2	3	90	0.00	29.856 
09:00	44.9	44.9	44.9	97	44.1	1	4	90	0.00	29.850 
09:05	44.9	44.9	44.9	97	44.1	3	6	90	0.00	29.850 
09:10	44.9	44.9	44.9	97	44.1	2	5	90	0.00	29.850 
09:15	44.9	44.9	44.9	97	44.1	3	7	90	0.00	29.850 
09:20	45.1	45.1	45.1	97	44.3	1	4	90	0.00	29.850 
09:25	45.1	45.1	45.1	97	44.3	2	4	90	0.00	29.850 
09:30	45.1	45.1	45.1	97	44.3	1	5	90	0.01	29.844 
09:35	45.2	45.2	45.2	97	44.4	1	4	90	0.00	29.844 
09:40	45.2	45.2	45.2	97	44.4	2	4	90	0.01	29.844 
09:45	45.4	45.4	45.4	97	44.6	0	3	90	0.01	29.853 
09:50	45.4	45.4	45.4	97	44.6	1	3	90	0.01	29.853 
09:55	45.5	45.5	45.5	97	44.7	0	2	90	0.01	29.853 
10:00	45.5	45.5	45.5	97	44.7	0	1	90	0.02	29.864 
10:05	45.7	45.7	45.7	97	44.9	1	3	90	0.02	29.864 
10:10	45.7	45.7	45.7	97	44.9	1	3	90	0.03	29.864 
10:15	45.7	45.7	45.7	97	44.9	1	3	90	0.01	29.848 
10:20	45.8	45.8	45.8	97	45.0	0	1	90	0.02	29.848 
10:25	46.0	46.0	46.0	98	45.5	0	0	---	0.02	29.848 
10:30	46.1	46.1	46.1	98	45.6	0	2	90	0.02	29.850 
10:35	46.2	46.2	46.2	98	45.7	1	4	90	0.03	29.850 
10:40	46.2	46.2	46.2	98	45.7	2	5	90	0.01	29.850 
10:45	46.5	46.5	46.5	98	46.0	0	3	90	0.00	29.804 
10:50	46.7	46.7	46.7	98	46.2	1	3	90	0.00	29.804 
10:55	47.0	47.0	47.0	98	46.5	2	4	90	0.00	29.804 
11:00	47.3	47.3	47.3	98	46.8	1	3	90	0.01	29.811 
11:05	47.6	47.6	47.6	98	47.1	0	3	90	0.00	29.811 
11:10	47.9	47.9	47.9	98	47.4	0	1	90	0.00	29.811 
11:15	48.2	48.2	48.2	98	47.7	0	2	90	0.00	29.805 
11:20	48.5	48.5	48.5	98	48.0	1	2	90	0.00	29.805 
11:25	48.5	48.5	48.5	98	48.0	1	3	90	0.00	29.805 
11:30	48.6	48.6	48.6	98	48.1	0	2	90	0.00	29.808 
11:35	48.9	48.9	48.9	98	48.4	1	3	112	0.00	29.808 
11:40	49.2	49.2	49.2	98	48.7	0	2	90	0.00	29.808 
11:45	49.6	49.6	49.6	98	49.1	0	3	45	0.00	29.835 
11:50	49.9	49.9	49.9	98	49.4	1	3	45	0.00	29.835 
11:55	50.1	50.1	50.1	98	49.6	0	2	90	0.00	29.835 
12:00	50.4	50.4	50.4	98	49.9	1	3	90	0.01	29.813 
12:05	50.5	50.5	50.5	98	50.0	0	1	90	0.01	29.813 
12:10	50.7	50.7	50.7	98	50.2	0	1	90	0.00	29.813 
12:15	51.0	51.0	51.0	98	50.5	0	2	90	0.01	29.816 
12:20	51.1	51.1	51.1	98	50.6	0	1	90	0.01	29.816 
12:25	51.4	51.4	51.4	98	50.9	0	2	90	0.01	29.816 
12:30	52.2	52.2	52.2	98	51.7	1	4	90	0.02	29.801 
12:35	52.9	52.9	52.9	98	52.3	1	2	90	0.01	29.801 
12:40	53.9	53.9	53.9	99	53.6	1	3	112	0.01	29.801 
12:45	54.7	54.7	54.7	99	54.4	0	2	90	0.01	29.783 
12:50	55.1	55.1	55.1	99	54.8	0	2	90	0.01	29.783 
12:55	55.7	55.7	55.7	99	55.4	0	3	135	0.00	29.783 
13:00	56.5	56.5	56.5	99	56.2	1	3	112	0.01	29.763 
13:05	57.0	57.0	57.0	99	56.7	1	4	90	0.00	29.763 
13:10	57.8	57.8	57.8	99	57.5	1	6	135	0.00	29.763 
13:15	58.4	58.4	58.4	99	58.1	1	3	90	0.00	29.723 
13:20	59.2	59.2	59.2	99	58.9	1	3	90	0.01	29.723 
13:25	59.9	59.9	59.9	99	59.6	1	4	135	0.00	29.723 
13:30	60.9	60.9	60.9	99	60.6	1	5	112	0.00	29.705 
13:35	62.1	62.1	62.1	99	61.8	1	4	112	0.00	29.705 
13:40	62.9	62.9	62.9	99	62.6	1	4	90	0.00	29.705 
13:45	63.1	63.1	63.1	99	62.8	1	3	90	0.00	29.714 
13:50	63.1	63.1	63.1	99	62.8	0	3	90	0.00	29.714 
13:55	63.1	63.1	63.1	99	62.8	1	5	90	0.00	29.714 
14:00	63.1	63.1	63.1	99	62.8	1	6	90	0.00	29.715 
14:05	63.4	63.4	63.4	99	63.1	0	5	112	0.00	29.715 
14:10	63.4	63.4	63.4	99	63.1	0	2	112	0.00	29.715 
14:15	63.2	63.2	63.2	98	62.6	1	5	112	0.00	29.715 
14:20	63.2	63.2	63.2	98	62.6	0	4	112	0.00	29.715 
14:25	63.2	63.2	63.2	98	62.6	0	2	112	0.00	29.715 
14:30	63.5	63.5	63.5	98	62.9	0	3	225	0.00	29.727 
14:35	63.7	63.7	63.7	98	63.1	0	2	68	0.00	29.727 
14:40	64.0	64.0	64.0	98	63.4	0	1	68	0.00	29.727 
14:45	64.3	64.3	64.3	98	63.7	0	2	68	0.00	29.714 
14:50	65.0	65.0	65.0	98	64.4	1	4	22	0.00	29.714 
14:55	65.5	65.5	65.5	98	64.9	0	2	270	0.00	29.714 
15:00	65.8	65.8	65.8	98	65.2	0	2	270	0.00	29.711 
15:05	66.0	66.0	66.0	98	65.4	0	1	270	0.00	29.711 
15:10	66.0	66.0	66.0	98	65.4	1	3	270	0.00	29.711 
15:15	66.0	66.0	66.0	98	65.4	1	3	270	0.00	29.703 
15:20	66.4	66.4	66.4	98	65.8	1	4	270	0.00	29.703 
15:25	67.4	67.4	67.4	98	66.8	1	3	270	0.00	29.703 
15:30	67.9	67.9	67.9	97	67.0	1	5	248	0.00	29.695 
15:35	68.8	68.8	68.8	97	67.9	1	5	248	0.00	29.695 
15:40	69.6	69.6	69.6	96	68.4	1	6	248	0.00	29.695 
15:45	70.4	70.4	70.4	95	68.9	1	4	248	0.00	29.672 
15:50	71.1	71.1	71.1	91	68.3	1	3	225	0.00	29.672 
15:55	71.5	71.5	71.5	84	66.4	2	6	225	0.00	29.672 
16:00	71.8	71.8	71.8	78	64.6	2	6	248	0.00	29.662 
16:05	72.0	72.0	72.0	76	64.0	1	4	248	0.00	29.662 
16:10	72.0	72.0	72.0	74	63.2	2	6	248	0.00	29.662 
16:15	71.8	71.8	71.8	73	62.7	2	5	248	0.00	29.660 
16:20	71.8	71.8	71.8	74	63.1	2	6	248	0.00	29.660 
16:25	72.0	72.0	72.0	73	62.9	3	7	248	0.00	29.660 
16:30	72.1	72.1	72.1	73	63.0	2	6	270	0.00	29.658 
16:35	72.3	72.3	72.3	73	63.1	2	6	248	0.00	29.658 
16:40	72.7	72.7	72.7	72	63.1	2	7	248	0.00	29.658 
16:45	72.8	72.8	72.8	70	62.4	2	6	248	0.00	29.651 
16:50	73.3	73.3	73.3	69	62.5	2	6	248	0.00	29.651 
16:55	73.9	73.9	73.9	68	62.7	2	6	248	0.00	29.651 
17:00	73.9	73.9	73.9	67	62.2	3	7	248	0.00	29.655 
17:05	73.9	73.9	73.9	67	62.2	3	10	248	0.00	29.655 
17:10	73.7	73.7	73.7	67	62.0	2	5	270	0.00	29.655 
17:15	73.7	73.7	73.7	67	62.0	2	10	248	0.00	29.650 
17:20	73.7	73.7	73.7	67	62.0	2	4	248	0.00	29.650 
17:25	73.7	73.7	73.7	67	62.0	2	6	248	0.00	29.650 
17:30	73.5	73.5	73.5	68	62.3	2	6	248	0.00	29.643 
17:35	73.3	73.3	73.3	67	61.7	2	5	248	0.00	29.643 
17:40	73.2	73.2	73.2	67	61.6	2	7	248	0.00	29.643 
17:45	73.0	73.0	73.0	68	61.8	1	5	248	0.00	29.640 
17:50	73.0	73.0	73.0	68	61.8	1	6	270	0.00	29.640 
17:55	72.8	72.8	72.8	69	62.0	1	3	270	0.00	29.640 
18:00	73.0	73.0	73.0	69	62.2	1	5	248	0.00	29.637 
18:05	73.2	73.2	73.2	68	62.0	2	6	248	0.00	29.637 
18:10	73.3	73.3	73.3	66	61.2	2	7	248	0.00	29.637 
18:15	73.5	73.5	73.5	65	61.0	2	6	248	0.00	29.634 
18:20	73.5	73.5	73.5	64	60.6	2	6	248	0.00	29.634 
18:25	73.5	73.5	73.5	64	60.6	1	5	248	0.00	29.634 
18:30	73.5	73.5	73.5	63	60.1	2	5	270	0.00	29.628 
18:35	73.5	73.5	73.5	63	60.1	1	4	248	0.00	29.628 
18:40	73.5	73.5	73.5	63	60.1	2	7	248	0.00	29.628 
18:45	73.5	73.5	73.5	63	60.1	2	6	270	0.00	29.634 
18:50	73.3	73.3	73.3	63	59.9	2	7	248	0.00	29.634 
18:55	73.3	73.3	73.3	63	59.9	2	5	270	0.00	29.634 
19:00	73.5	73.5	73.5	62	59.7	2	6	248	0.00	29.640 
19:05	73.5	73.5	73.5	62	59.7	2	6	248	0.00	29.640 
19:10	73.7	73.7	73.7	62	59.9	2	6	248	0.00	29.640 
19:15	73.7	73.7	73.7	62	59.9	2	5	248	0.00	29.640 
19:20	73.7	73.7	73.7	62	59.9	2	4	248	0.00	29.640 
19:25	73.5	73.5	73.5	62	59.7	2	6	248	0.00	29.640 
19:30	73.5	73.5	73.5	62	59.7	1	6	270	0.00	29.644 
19:35	73.3	73.3	73.3	62	59.5	1	5	270	0.00	29.644 
19:40	73.3	73.3	73.3	62	59.5	2	10	248	0.00	29.644 
19:45	73.3	73.3	73.3	62	59.5	1	5	248	0.00	29.644 
19:50	73.2	73.2	73.2	62	59.4	2	7	248	0.00	29.644 
19:55	73.2	73.2	73.2	63	59.8	1	4	248	0.00	29.644 
20:00	73.0	73.0	73.0	63	59.6	1	4	270	0.00	29.646 
20:05	72.7	72.7	72.7	63	59.4	1	12	248	0.00	29.646 
20:10	72.7	72.7	72.7	62	58.9	2	5	248	0.00	29.646 
20:15	72.8	72.8	72.8	62	59.0	2	7	248	0.00	29.647 
20:20	72.8	72.8	72.8	62	59.0	2	5	248	0.00	29.647 
20:25	72.7	72.7	72.7	61	58.5	3	10	270	0.00	29.647 
20:30	72.7	72.7	72.7	61	58.5	2	6	248	0.00	29.649 
20:35	72.7	72.7	72.7	62	58.9	1	4	248	0.00	29.649 
20:40	72.5	72.5	72.5	62	58.7	1	5	248	0.00	29.649 
20:45	72.5	72.5	72.5	62	58.7	1	4	248	0.00	29.651 
20:50	72.3	72.3	72.3	62	58.5	1	4	248	0.00	29.651 
20:55	72.3	72.3	72.3	63	59.0	0	3	248	0.00	29.651 
21:00	72.0	72.0	72.0	63	58.7	0	2	248	0.00	29.645 
21:05	71.6	71.6	71.6	65	59.2	0	2	248	0.00	29.645 
21:10	71.3	71.3	71.3	65	58.9	0	3	68	0.00	29.645 
21:15	70.9	70.9	70.9	66	59.0	0	2	0	0.00	29.640 
21:20	70.8	70.8	70.8	67	59.3	0	3	0	0.00	29.640 
21:25	70.4	70.4	70.4	67	58.9	0	4	0	0.00	29.640 
21:30	70.6	70.6	70.6	67	59.1	1	5	248	0.00	29.641 
21:35	70.6	70.6	70.6	67	59.1	0	3	248	0.00	29.641 
21:40	70.8	70.8	70.8	67	59.3	0	3	248	0.00	29.641 
21:45	70.8	70.8	70.8	67	59.3	0	2	248	0.00	29.634 
21:50	70.6	70.6	70.6	66	58.7	0	2	315	0.00	29.634 
21:55	70.4	70.4	70.4	66	58.5	1	3	292	0.00	29.634 
22:00	70.4	70.4	70.4	66	58.5	0	3	292	0.00	29.625 
22:05	70.4	70.4	70.4	66	58.5	0	2	292	0.00	29.625 
22:10	70.6	70.6	70.6	65	58.2	1	4	270	0.00	29.625 
22:15	70.6	70.6	70.6	66	58.7	1	4	248	0.00	29.613 
22:20	70.6	70.6	70.6	65	58.2	1	4	270	0.00	29.613 
22:25	70.6	70.6	70.6	65	58.2	1	4	270	0.00	29.613 
22:30	70.4	70.4	70.4	65	58.1	1	3	225	0.00	29.609 
22:35	70.4	70.4	70.4	66	58.5	0	2	248	0.00	29.609 
22:40	70.3	70.3	70.3	66	58.4	1	4	292	0.00	29.609 
22:45	69.9	69.9	69.9	66	58.0	1	4	45	0.00	29.598 
22:50	69.8	69.8	69.8	67	58.3	0	2	45	0.00	29.598 
22:55	69.4	69.4	69.4	68	58.4	0	3	338	0.00	29.598 
23:00	69.3	69.3	69.3	68	58.3	0	2	338	0.00	29.596 
23:05	68.9	68.9	68.9	69	58.3	0	3	338	0.00	29.596 
23:10	68.9	68.9	68.9	69	58.3	0	2	68	0.00	29.596 
23:15	68.8	68.8	68.8	69	58.2	0	3	68	0.00	29.594 
23:20	68.8	68.8	68.8	69	58.2	0	2	45	0.00	29.594 
23:25	68.6	68.6	68.6	70	58.4	1	4	45	0.00	29.594 
23:30	68.6	68.6	68.6	70	58.4	1	5	45	0.00	29.583 
23:35	68.4	68.4	68.4	70	58.2	0	2	45	0.00	29.583 
23:40	68.4	68.4	68.4	70	58.2	1	3	90	0.00	29.583 
23:45	68.4	68.4	68.4	69	57.8	1	3	90	0.00	29.578 
23:50	68.4	68.4	68.4	69	57.8	1	4	90	0.00	29.578 
23:55	68.4	68.4	68.4	69	57.8	1	3	90	0.00	29.578 

CoCoRaHS
IN-AL-39
A2 Web Hosting
Creative Commons License
GoDaddy
search engine by freefind advanced

loaded 2018-11-12 19:10:53 • last modified 2010-11-18 10:43:29
Privacy PolicyDisclaimer
• wx.awcolley.com is powered by PmWiki v.2002016 •
• all content (unless otherwise noted) © 2018 A W Colley